KART/ART METAR and TAF weather

Enter ICAO airport designator
Station Type Date Time Source
KART METAR 2022/01/19 18:56 UTC NOAA

KART 191856Z AUTO 21014G25KT 10SM BKN029 OVC050 04/M03 A2970 RMK AO2 SLP063 T00391028


Station Type Date Time Source
KART Decoded METAR 2022/01/19 18:56 UTC NOAA

WATERTOWN INTERNATIONAL AIRPORT, NY, United States (KART) 43-59N 076-02W 100M
Jan 19, 2022 - 01:56 PM EST / 2022.01.19 1856 UTC
Wind: from the SSW (210 degrees) at 16 MPH (14 KT) gusting to 29 MPH (25 KT):0
Visibility: 10 mile(s):0
Sky conditions: overcast
Temperature: 39.0 F (3.9 C)
Dew Point: 27.0 F (-2.8 C)
Relative Humidity: 61%
Pressure (altimeter): 29.7 in. Hg (1005 hPa)
ob: KART 191856Z AUTO 21014G25KT 10SM BKN029 OVC050 04/M03 A2970 RMK AO2 SLP063 T00391028
cycle: 19

Station Type Date Time Source
KART TAF 2022/01/19 18:42 UTC NOAA

TAF KART 191740Z 1918/2018 22016G24KT 6SM -DZ OVC025
FM192200 25018G28KT P6SM VCSH OVC015
FM200300 28012G20KT P6SM BKN040
FM200900 34008KT P6SM BKN040
FM201500 35006KT P6SM SCT040

Example: see airport list